createdAt,value
2018-09-29T00:02:23.901Z,102809.00
2018-09-29T00:04:53.754Z,102806.00
2018-09-29T00:07:23.662Z,102811.00
2018-09-29T00:09:53.534Z,102815.00
2018-09-29T00:12:23.393Z,102806.00
2018-09-29T00:14:53.227Z,102811.00
2018-09-29T00:17:23.013Z,102805.00
2018-09-29T00:19:52.826Z,102805.00
2018-09-29T00:22:22.666Z,102807.00
2018-09-29T00:24:52.622Z,102799.00
2018-09-29T00:27:22.475Z,102795.00
2018-09-29T00:29:52.270Z,102797.00
2018-09-29T00:32:22.204Z,102799.00
2018-09-29T00:34:52.018Z,102793.00
2018-09-29T00:37:21.945Z,102801.00
2018-09-29T00:39:51.713Z,102785.00
2018-09-29T00:42:21.553Z,102802.00
2018-09-29T00:44:51.385Z,102793.00
2018-09-29T00:47:21.147Z,102806.00
2018-09-29T00:49:50.947Z,102806.00
2018-09-29T00:52:20.745Z,102800.00
2018-09-29T00:54:50.560Z,102801.00
2018-09-29T00:57:20.394Z,102804.00
2018-09-29T00:59:50.287Z,102798.00
2018-09-29T01:02:20.174Z,102794.00
2018-09-29T01:04:49.951Z,102789.00
2018-09-29T01:07:19.789Z,102788.00
2018-09-29T01:09:49.631Z,102785.00
2018-09-29T01:12:19.383Z,102793.00
2018-09-29T01:14:49.182Z,102793.00
2018-09-29T01:17:18.983Z,102800.00
2018-09-29T01:19:48.731Z,102802.00
2018-09-29T01:22:18.500Z,102800.00
2018-09-29T01:24:48.296Z,102792.00
2018-09-29T01:27:18.047Z,102787.00
2018-09-29T01:29:47.812Z,102793.00
2018-09-29T01:32:17.574Z,102786.00
2018-09-29T01:34:47.374Z,102792.00
2018-09-29T01:37:17.136Z,102800.00
2018-09-29T01:39:46.966Z,102788.00
2018-09-29T01:42:16.800Z,102785.00
2018-09-29T01:44:46.640Z,102783.00
2018-09-29T01:47:16.522Z,102793.00
2018-09-29T01:49:46.413Z,102777.00
2018-09-29T01:52:16.270Z,102779.00
2018-09-29T01:54:46.170Z,102787.00
2018-09-29T01:57:16.003Z,102773.00
2018-09-29T01:59:45.822Z,102772.00
2018-09-29T02:02:15.638Z,102780.00
2018-09-29T02:04:45.384Z,102775.00
2018-09-29T02:07:15.143Z,102772.00
2018-09-29T02:09:45.075Z,102768.00
2018-09-29T02:12:14.913Z,102783.00
2018-09-29T02:14:44.665Z,102783.00
2018-09-29T02:17:14.485Z,102788.00
2018-09-29T02:19:44.337Z,102786.00
2018-09-29T02:22:14.143Z,102789.00
2018-09-29T02:24:44.037Z,102776.00
2018-09-29T02:27:13.882Z,102780.00
2018-09-29T02:29:43.643Z,102778.00
2018-09-29T02:32:13.469Z,102777.00
2018-09-29T02:34:43.313Z,102777.00
2018-09-29T02:37:13.074Z,102775.00
2018-09-29T02:39:43.000Z,102773.00
2018-09-29T02:42:12.797Z,102778.00
2018-09-29T02:44:42.616Z,102777.00
2018-09-29T02:47:12.514Z,102776.00
2018-09-29T02:49:42.482Z,102786.00
2018-09-29T02:52:12.327Z,102776.00
2018-09-29T02:54:42.229Z,102781.00
2018-09-29T02:57:12.217Z,102781.00
2018-09-29T02:59:42.095Z,102783.00
2018-09-29T03:02:11.882Z,102779.00
2018-09-29T03:04:41.723Z,102774.00
2018-09-29T03:07:11.497Z,102774.00
2018-09-29T03:09:41.396Z,102775.00
2018-09-29T03:12:11.291Z,102774.00
2018-09-29T03:14:41.096Z,102779.00
2018-09-29T03:17:10.956Z,102774.00
2018-09-29T03:19:40.779Z,102778.00
2018-09-29T03:22:10.634Z,102775.00
2018-09-29T03:24:40.499Z,102773.00
2018-09-29T03:27:10.514Z,102777.00
2018-09-29T03:29:40.316Z,102781.00
2018-09-29T03:32:10.172Z,102781.00
2018-09-29T03:34:39.941Z,102783.00
2018-09-29T03:37:09.718Z,102775.00
2018-09-29T03:39:39.534Z,102772.00
2018-09-29T03:42:09.282Z,102773.00
2018-09-29T03:44:39.058Z,102774.00
2018-09-29T03:47:08.848Z,102769.00
2018-09-29T03:49:38.702Z,102769.00
2018-09-29T03:52:08.571Z,102754.00
2018-09-29T03:54:38.592Z,102752.00
2018-09-29T03:57:08.339Z,102754.00
2018-09-29T03:59:38.109Z,102761.00
2018-09-29T04:02:07.989Z,102759.00
2018-09-29T04:04:37.885Z,102758.00
2018-09-29T04:07:07.757Z,102761.00
2018-09-29T04:09:37.566Z,102751.00
2018-09-29T04:12:07.325Z,102754.00
2018-09-29T04:14:37.040Z,102746.00
2018-09-29T04:17:06.795Z,102744.00
2018-09-29T04:19:36.631Z,102758.00
2018-09-29T04:22:06.589Z,102760.00
2018-09-29T04:24:36.368Z,102762.00
2018-09-29T04:27:06.167Z,102763.00
2018-09-29T04:29:35.988Z,102762.00
2018-09-29T04:32:05.924Z,102777.00
2018-09-29T04:34:35.782Z,102773.00
2018-09-29T04:37:05.514Z,102771.00
2018-09-29T04:39:35.398Z,102770.00
2018-09-29T04:42:05.134Z,102769.00
2018-09-29T04:44:34.863Z,102775.00
2018-09-29T04:47:04.669Z,102776.00
2018-09-29T04:49:34.531Z,102780.00
2018-09-29T04:52:04.490Z,102776.00
2018-09-29T04:54:34.290Z,102783.00
2018-09-29T04:57:04.191Z,102780.00
2018-09-29T04:59:34.022Z,102793.00
2018-09-29T05:02:03.895Z,102789.00
2018-09-29T05:04:33.669Z,102788.00
2018-09-29T05:07:03.546Z,102788.00
2018-09-29T05:09:33.346Z,102776.00
2018-09-29T05:12:03.250Z,102780.00
2018-09-29T05:14:33.069Z,102779.00
2018-09-29T05:17:03.017Z,102786.00
2018-09-29T05:19:32.917Z,102789.00
2018-09-29T05:22:02.797Z,102784.00
2018-09-29T05:24:32.607Z,102781.00
2018-09-29T05:27:02.441Z,102779.00
2018-09-29T05:29:32.240Z,102774.00
2018-09-29T05:32:02.081Z,102771.00
2018-09-29T05:34:31.934Z,102772.00
2018-09-29T05:37:01.780Z,102777.00
2018-09-29T05:39:31.618Z,102767.00
2018-09-29T05:42:01.451Z,102768.00
2018-09-29T05:44:31.317Z,102769.00
2018-09-29T05:47:01.166Z,102778.00
2018-09-29T05:49:30.999Z,102778.00
2018-09-29T05:52:00.830Z,102782.00
2018-09-29T05:54:30.643Z,102781.00
2018-09-29T05:57:00.425Z,102785.00
2018-09-29T05:59:30.219Z,102786.00
2018-09-29T06:02:00.013Z,102791.00
2018-09-29T06:04:30.295Z,102787.00
2018-09-29T06:07:00.185Z,102784.00
2018-09-29T06:09:29.979Z,102796.00
2018-09-29T06:12:00.091Z,102791.00
2018-09-29T06:14:29.940Z,102792.00
2018-09-29T06:16:59.728Z,102790.00
2018-09-29T06:19:29.718Z,102793.00
2018-09-29T06:21:59.491Z,102790.00
2018-09-29T06:24:29.311Z,102790.00
2018-09-29T06:26:59.171Z,102788.00
2018-09-29T06:29:29.017Z,102784.00
2018-09-29T06:31:58.845Z,102791.00
2018-09-29T06:34:28.645Z,102792.00
2018-09-29T06:36:58.364Z,102794.00
2018-09-29T06:39:28.190Z,102791.00
2018-09-29T06:41:58.069Z,102796.00
2018-09-29T06:44:27.874Z,102790.00
2018-09-29T06:46:57.789Z,102781.00
2018-09-29T06:49:27.811Z,102780.00
2018-09-29T06:51:57.671Z,102783.00
2018-09-29T06:54:27.464Z,102778.00
2018-09-29T06:56:57.201Z,102782.00
2018-09-29T06:59:27.009Z,102791.00
2018-09-29T07:01:56.816Z,102787.00
2018-09-29T07:04:26.658Z,102787.00
2018-09-29T07:06:56.581Z,102776.00
2018-09-29T07:09:26.490Z,102781.00
2018-09-29T07:11:56.306Z,102778.00
2018-09-29T07:14:26.354Z,102764.00
2018-09-29T07:16:56.290Z,102769.00
2018-09-29T07:19:26.352Z,102769.00
2018-09-29T07:21:56.399Z,102768.00
2018-09-29T07:24:26.242Z,102774.00
2018-09-29T07:26:56.104Z,102766.00
2018-09-29T07:29:26.135Z,102774.00
2018-09-29T07:31:55.976Z,102771.00
2018-09-29T07:34:26.632Z,102760.00
2018-09-29T07:36:56.588Z,102759.00
2018-09-29T07:39:26.519Z,102753.00
2018-09-29T07:41:56.370Z,102752.00
2018-09-29T07:44:26.236Z,102748.00
2018-09-29T07:46:56.040Z,102747.00
2018-09-29T07:49:25.985Z,102759.00
2018-09-29T07:51:55.818Z,102738.00
2018-09-29T07:54:25.718Z,102746.00
2018-09-29T07:56:55.579Z,102758.00
2018-09-29T07:59:26.179Z,102751.00
2018-09-29T08:01:56.057Z,102756.00
2018-09-29T08:04:25.919Z,102751.00
2018-09-29T08:06:55.770Z,102746.00
2018-09-29T08:09:25.572Z,102752.00
2018-09-29T08:11:56.812Z,102754.00
2018-09-29T08:14:26.663Z,102759.00
2018-09-29T08:16:56.447Z,102760.00
2018-09-29T08:19:26.370Z,102753.00
2018-09-29T08:21:56.135Z,102751.00
2018-09-29T08:24:25.996Z,102750.00
2018-09-29T08:26:55.800Z,102746.00
2018-09-29T08:29:25.664Z,102752.00
2018-09-29T08:31:55.575Z,102745.00
2018-09-29T08:34:25.403Z,102754.00
2018-09-29T08:36:55.256Z,102752.00
2018-09-29T08:39:25.147Z,102748.00
2018-09-29T08:41:54.940Z,102748.00
2018-09-29T08:44:24.867Z,102749.00
2018-09-29T08:46:54.844Z,102744.00
2018-09-29T08:49:24.866Z,102737.00
2018-09-29T08:51:54.684Z,102742.00
2018-09-29T08:54:25.469Z,102741.00
2018-09-29T08:56:55.421Z,102732.00
2018-09-29T08:59:25.258Z,102730.00
2018-09-29T09:01:55.226Z,102729.00
2018-09-29T09:04:25.110Z,102734.00
2018-09-29T09:06:54.986Z,102720.00
2018-09-29T09:09:25.085Z,102723.00
2018-09-29T09:11:54.798Z,102720.00
2018-09-29T09:14:24.720Z,102713.00
2018-09-29T09:16:54.678Z,102709.00
2018-09-29T09:19:24.510Z,102707.00
2018-09-29T09:21:54.441Z,102709.00
2018-09-29T09:24:24.423Z,102703.00
2018-09-29T09:26:54.288Z,102705.00
2018-09-29T09:29:24.219Z,102697.00
2018-09-29T09:31:54.118Z,102698.00
2018-09-29T09:34:23.928Z,102688.00
2018-09-29T09:36:53.864Z,102689.00
2018-09-29T09:39:23.717Z,102684.00
2018-09-29T09:41:53.530Z,102684.00
2018-09-29T09:44:23.339Z,102682.00
2018-09-29T09:46:53.212Z,102678.00
2018-09-29T09:49:23.036Z,102674.00
2018-09-29T09:51:52.842Z,102679.00
2018-09-29T09:54:22.677Z,102676.00
2018-09-29T09:56:52.618Z,102669.00
2018-09-29T09:59:22.545Z,102666.00
2018-09-29T10:01:57.484Z,102665.00
2018-09-29T10:04:28.150Z,102656.00
2018-09-29T10:06:58.087Z,102662.00
2018-09-29T10:09:28.071Z,102656.00
2018-09-29T10:11:58.059Z,102656.00
2018-09-29T10:14:28.035Z,102647.00
2018-09-29T10:16:58.362Z,102644.00
2018-09-29T10:19:28.198Z,102644.00
2018-09-29T10:21:58.116Z,102650.00
2018-09-29T10:24:28.094Z,102642.00
2018-09-29T10:26:58.113Z,102650.00
2018-09-29T10:29:27.925Z,102644.00
2018-09-29T10:31:57.766Z,102643.00
2018-09-29T10:34:27.628Z,102633.00
2018-09-29T10:36:57.606Z,102628.00
2018-09-29T10:39:27.473Z,102626.00
2018-09-29T10:41:57.284Z,102621.00
2018-09-29T10:44:27.316Z,102617.00
2018-09-29T10:46:57.221Z,102623.00
2018-09-29T10:49:27.077Z,102619.00
2018-09-29T10:51:57.040Z,102601.00
2018-09-29T10:54:26.895Z,102615.00
2018-09-29T10:56:56.830Z,102614.00
2018-09-29T10:59:26.768Z,102613.00
2018-09-29T11:01:56.877Z,102605.00
2018-09-29T11:04:26.918Z,102604.00
2018-09-29T11:06:56.815Z,102592.00
2018-09-29T11:09:27.343Z,102587.00
2018-09-29T11:11:57.179Z,102592.00
2018-09-29T11:14:27.343Z,102586.00
2018-09-29T11:16:57.167Z,102577.00
2018-09-29T11:19:27.175Z,102574.00
2018-09-29T11:21:57.093Z,102572.00
2018-09-29T11:24:26.870Z,102564.00
2018-09-29T11:26:56.915Z,102561.00
2018-09-29T11:29:27.043Z,102563.00
2018-09-29T11:31:57.032Z,102561.00
2018-09-29T11:34:26.910Z,102552.00
2018-09-29T11:36:56.783Z,102551.00
2018-09-29T11:39:26.871Z,102544.00
2018-09-29T11:41:56.689Z,102540.00
2018-09-29T11:44:27.202Z,102535.00
2018-09-29T11:46:57.176Z,102520.00
2018-09-29T11:49:27.238Z,102526.00
2018-09-29T11:51:57.070Z,102520.00
2018-09-29T11:54:26.971Z,102512.00
2018-09-29T11:56:56.905Z,102510.00
2018-09-29T11:59:26.844Z,102505.00
2018-09-29T12:01:56.834Z,102500.00
2018-09-29T12:04:26.698Z,102505.00
2018-09-29T12:06:56.693Z,102507.00
2018-09-29T12:09:26.537Z,102496.00
2018-09-29T12:11:56.414Z,102491.00
2018-09-29T12:14:26.339Z,102492.00
2018-09-29T12:16:56.233Z,102494.00
2018-09-29T12:19:26.227Z,102491.00
2018-09-29T12:21:56.030Z,102488.00
2018-09-29T12:24:25.832Z,102483.00
2018-09-29T12:26:55.805Z,102474.00
2018-09-29T12:29:25.836Z,102470.00
2018-09-29T12:31:55.718Z,102462.00
2018-09-29T12:34:25.644Z,102465.00
2018-09-29T12:36:55.606Z,102459.00
2018-09-29T12:39:25.729Z,102460.00
2018-09-29T12:41:55.773Z,102456.00
2018-09-29T12:44:25.688Z,102453.00
2018-09-29T12:46:55.744Z,102438.00
2018-09-29T12:49:25.705Z,102435.00
2018-09-29T12:51:55.781Z,102439.00
2018-09-29T12:54:25.587Z,102432.00
2018-09-29T12:56:55.588Z,102428.00
2018-09-29T12:59:25.692Z,102425.00
2018-09-29T13:01:55.668Z,102419.00
2018-09-29T13:04:25.534Z,102420.00
2018-09-29T13:06:55.375Z,102416.00
2018-09-29T13:09:25.576Z,102404.00
2018-09-29T13:11:55.595Z,102406.00
2018-09-29T13:14:25.646Z,102405.00
2018-09-29T13:16:55.566Z,102395.00
2018-09-29T13:19:25.509Z,102402.00
2018-09-29T13:21:55.281Z,102390.00
2018-09-29T13:24:25.254Z,102382.00
2018-09-29T13:26:55.121Z,102375.00
2018-09-29T13:29:25.128Z,102372.00
2018-09-29T13:31:55.003Z,102369.00
2018-09-29T13:34:24.804Z,102374.00
2018-09-29T13:36:54.747Z,102369.00
2018-09-29T13:39:24.707Z,102365.00
2018-09-29T13:41:54.517Z,102356.00
2018-09-29T13:44:24.289Z,102360.00
2018-09-29T13:46:54.159Z,102354.00
2018-09-29T13:49:24.034Z,102345.00
2018-09-29T13:51:53.945Z,102351.00
2018-09-29T13:54:23.901Z,102337.00
2018-09-29T13:56:53.834Z,102346.00
2018-09-29T13:59:23.763Z,102345.00
2018-09-29T14:01:53.708Z,102333.00
2018-09-29T14:04:23.643Z,102327.00
2018-09-29T14:06:53.562Z,102326.00
2018-09-29T14:09:23.558Z,102325.00
2018-09-29T14:11:53.498Z,102320.00
2018-09-29T14:14:23.468Z,102316.00
2018-09-29T14:16:53.382Z,102313.00
2018-09-29T14:19:23.355Z,102316.00
2018-09-29T14:21:53.310Z,102307.00
2018-09-29T14:24:23.270Z,102308.00
2018-09-29T14:26:53.105Z,102299.00
2018-09-29T14:29:23.172Z,102298.00
2018-09-29T14:31:53.480Z,102301.00
2018-09-29T14:34:23.410Z,102293.00
2018-09-29T14:36:53.346Z,102292.00
2018-09-29T14:39:23.222Z,102286.00
2018-09-29T14:41:53.181Z,102279.00
2018-09-29T14:44:23.022Z,102284.00
2018-09-29T14:46:52.987Z,102281.00
2018-09-29T14:49:22.995Z,102280.00
2018-09-29T14:51:52.971Z,102273.00
2018-09-29T14:54:22.799Z,102265.00
2018-09-29T14:56:52.766Z,102269.00
2018-09-29T14:59:23.545Z,102261.00
2018-09-29T15:01:53.503Z,102255.00
2018-09-29T15:04:23.553Z,102254.00
2018-09-29T15:06:53.533Z,102259.00
2018-09-29T15:09:23.367Z,102260.00
2018-09-29T15:11:53.298Z,102258.00
2018-09-29T15:14:23.238Z,102255.00
2018-09-29T15:16:53.088Z,102250.00
2018-09-29T15:19:23.163Z,102252.00
2018-09-29T15:21:53.169Z,102244.00
2018-09-29T15:24:23.120Z,102243.00
2018-09-29T15:26:53.220Z,102238.00
2018-09-29T15:29:23.243Z,102233.00
2018-09-29T15:31:53.182Z,102238.00
2018-09-29T15:34:23.155Z,102228.00
2018-09-29T15:36:53.022Z,102231.00
2018-09-29T15:39:22.944Z,102214.00
2018-09-29T15:41:52.824Z,102218.00
2018-09-29T15:44:22.749Z,102211.00
2018-09-29T15:46:52.810Z,102214.00
2018-09-29T15:49:22.715Z,102206.00
2018-09-29T15:51:52.639Z,102209.00
2018-09-29T15:54:22.709Z,102207.00
2018-09-29T15:56:52.637Z,102202.00
2018-09-29T15:59:22.419Z,102214.00
2018-09-29T16:01:52.261Z,102210.00
2018-09-29T16:04:22.201Z,102204.00
2018-09-29T16:06:52.000Z,102194.00
2018-09-29T16:09:21.888Z,102188.00
2018-09-29T16:11:51.800Z,102178.00
2018-09-29T16:14:21.767Z,102177.00
2018-09-29T16:16:51.750Z,102176.00
2018-09-29T16:19:21.817Z,102170.00
2018-09-29T16:21:52.059Z,102172.00
2018-09-29T16:24:22.102Z,102166.00
2018-09-29T16:26:52.341Z,102157.00
2018-09-29T16:29:22.264Z,102169.00
2018-09-29T16:31:52.073Z,102165.00
2018-09-29T16:34:22.039Z,102173.00
2018-09-29T16:36:51.945Z,102166.00
2018-09-29T16:39:21.782Z,102173.00
2018-09-29T16:41:51.857Z,102175.00
2018-09-29T16:44:22.477Z,102173.00
2018-09-29T16:46:53.726Z,102174.00
2018-09-29T16:49:23.564Z,102174.00
2018-09-29T16:51:53.588Z,102169.00
2018-09-29T16:54:23.503Z,102169.00
2018-09-29T16:56:53.476Z,102170.00
2018-09-29T16:59:23.310Z,102167.00
2018-09-29T17:01:53.195Z,102159.00
2018-09-29T17:04:23.124Z,102163.00
2018-09-29T17:06:53.056Z,102170.00
2018-09-29T17:09:23.644Z,102172.00
2018-09-29T17:11:53.437Z,102167.00
2018-09-29T17:14:23.314Z,102157.00
2018-09-29T17:16:53.174Z,102156.00
2018-09-29T17:19:23.005Z,102151.00
2018-09-29T17:21:52.909Z,102159.00
2018-09-29T17:24:37.290Z,102156.00
2018-09-29T17:27:07.146Z,102157.00
2018-09-29T17:29:37.062Z,102156.00
2018-09-29T17:32:06.885Z,102156.00
2018-09-29T17:34:36.799Z,102143.00
2018-09-29T17:37:06.735Z,102144.00
2018-09-29T17:39:36.684Z,102140.00
2018-09-29T17:42:06.617Z,102138.00
2018-09-29T17:44:36.801Z,102139.00
2018-09-29T17:47:06.871Z,102143.00
2018-09-29T17:49:37.089Z,102139.00
2018-09-29T17:52:07.325Z,102138.00
2018-09-29T17:54:37.518Z,102141.00
2018-09-29T17:57:07.763Z,102140.00
2018-09-29T17:59:37.687Z,102144.00
2018-09-29T18:02:08.079Z,102138.00
2018-09-29T18:04:37.942Z,102138.00
2018-09-29T18:07:09.362Z,102139.00
2018-09-29T18:09:39.255Z,102130.00
2018-09-29T18:12:09.163Z,102137.00
2018-09-29T18:14:38.955Z,102133.00
2018-09-29T18:17:08.769Z,102138.00
2018-09-29T18:19:38.566Z,102137.00
2018-09-29T18:22:09.239Z,102141.00
2018-09-29T18:24:39.036Z,102141.00
2018-09-29T18:27:08.926Z,102147.00
2018-09-29T18:29:38.775Z,102135.00
2018-09-29T18:32:08.631Z,102146.00
2018-09-29T18:34:38.575Z,102151.00
2018-09-29T18:37:08.459Z,102155.00
2018-09-29T18:39:38.260Z,102142.00
2018-09-29T18:42:08.248Z,102143.00
2018-09-29T18:44:37.961Z,102147.00
2018-09-29T18:47:07.976Z,102147.00
2018-09-29T18:49:37.882Z,102134.00
2018-09-29T18:52:07.968Z,102141.00
2018-09-29T18:54:37.862Z,102141.00
2018-09-29T18:57:07.851Z,102137.00
2018-09-29T18:59:38.587Z,102145.00
2018-09-29T19:02:08.686Z,102135.00
2018-09-29T19:04:38.616Z,102142.00
2018-09-29T19:07:08.529Z,102137.00
2018-09-29T19:09:38.254Z,102131.00
2018-09-29T19:12:07.997Z,102139.00
2018-09-29T19:14:37.899Z,102143.00
2018-09-29T19:17:08.369Z,102148.00
2018-09-29T19:19:38.234Z,102135.00
2018-09-29T19:22:08.171Z,102131.00
2018-09-29T19:24:38.030Z,102128.00
2018-09-29T19:27:07.867Z,102122.00
2018-09-29T19:29:37.768Z,102127.00
2018-09-29T19:32:08.038Z,102127.00
2018-09-29T19:34:37.822Z,102116.00
2018-09-29T19:37:07.699Z,102109.00
2018-09-29T19:39:37.538Z,102115.00
2018-09-29T19:42:22.060Z,102116.00
2018-09-29T19:44:51.938Z,102111.00
2018-09-29T19:47:21.844Z,102119.00
2018-09-29T19:49:51.633Z,102129.00
2018-09-29T19:52:21.589Z,102119.00
2018-09-29T19:54:51.479Z,102114.00
2018-09-29T19:57:21.325Z,102122.00
2018-09-29T19:59:51.179Z,102111.00
2018-09-29T20:02:20.975Z,102115.00
2018-09-29T20:04:50.832Z,102106.00
2018-09-29T20:07:20.525Z,102105.00
2018-09-29T20:09:50.441Z,102116.00
2018-09-29T20:12:20.297Z,102111.00
2018-09-29T20:14:50.227Z,102107.00
2018-09-29T20:17:20.000Z,102111.00
2018-09-29T20:19:49.839Z,102114.00
2018-09-29T20:22:19.709Z,102110.00
2018-09-29T20:24:49.486Z,102104.00
2018-09-29T20:27:19.309Z,102110.00
2018-09-29T20:29:49.035Z,102100.00
2018-09-29T20:32:18.851Z,102098.00
2018-09-29T20:34:48.675Z,102101.00
2018-09-29T20:37:18.605Z,102091.00
2018-09-29T20:39:48.483Z,102086.00
2018-09-29T20:42:18.322Z,102089.00
2018-09-29T20:44:48.139Z,102100.00
2018-09-29T20:47:18.076Z,102087.00
2018-09-29T20:49:48.101Z,102078.00
2018-09-29T20:52:18.050Z,102086.00
2018-09-29T20:54:48.106Z,102082.00
2018-09-29T20:57:18.136Z,102075.00
2018-09-29T20:59:47.987Z,102077.00
2018-09-29T21:02:18.454Z,102080.00
2018-09-29T21:04:48.502Z,102080.00
2018-09-29T21:07:18.374Z,102077.00
2018-09-29T21:09:48.295Z,102079.00
2018-09-29T21:12:18.167Z,102067.00
2018-09-29T21:14:48.270Z,102059.00
2018-09-29T21:17:18.180Z,102056.00
2018-09-29T21:19:48.037Z,102056.00
2018-09-29T21:22:17.746Z,102047.00
2018-09-29T21:24:47.643Z,102052.00
2018-09-29T21:27:17.447Z,102043.00
2018-09-29T21:29:47.218Z,102043.00
2018-09-29T21:32:17.296Z,102040.00
2018-09-29T21:34:47.203Z,102032.00
2018-09-29T21:37:17.043Z,102026.00
2018-09-29T21:39:46.856Z,102024.00
2018-09-29T21:42:16.833Z,102023.00
2018-09-29T21:44:46.645Z,102020.00
2018-09-29T21:47:16.545Z,102015.00
2018-09-29T21:49:46.476Z,102011.00
2018-09-29T21:52:16.331Z,102005.00
2018-09-29T21:54:46.153Z,101998.00
2018-09-29T21:57:16.071Z,101991.00
2018-09-29T21:59:45.875Z,101994.00
2018-09-29T22:02:15.775Z,101988.00
2018-09-29T22:04:45.696Z,101984.00
2018-09-29T22:07:15.607Z,101992.00
2018-09-29T22:09:45.469Z,101981.00
2018-09-29T22:12:15.345Z,101971.00
2018-09-29T22:14:45.241Z,101975.00
2018-09-29T22:17:15.043Z,101978.00
2018-09-29T22:19:44.888Z,101968.00
2018-09-29T22:22:14.810Z,101975.00
2018-09-29T22:24:44.517Z,101968.00
2018-09-29T22:27:14.371Z,101968.00
2018-09-29T22:29:44.246Z,101971.00
2018-09-29T22:32:14.124Z,101974.00
2018-09-29T22:34:44.094Z,101966.00
2018-09-29T22:37:13.878Z,101968.00
2018-09-29T22:39:43.695Z,101969.00
2018-09-29T22:42:13.598Z,101970.00
2018-09-29T22:44:43.455Z,101966.00
2018-09-29T22:47:13.384Z,101963.00
2018-09-29T22:49:43.138Z,101967.00
2018-09-29T22:52:12.835Z,101959.00
2018-09-29T22:54:42.573Z,101963.00
2018-09-29T22:57:12.455Z,101954.00
2018-09-29T22:59:42.198Z,101955.00
2018-09-29T23:02:12.099Z,101963.00
2018-09-29T23:04:42.114Z,101961.00
2018-09-29T23:07:11.940Z,101959.00
2018-09-29T23:09:41.798Z,101962.00
2018-09-29T23:12:11.657Z,101953.00
2018-09-29T23:14:41.706Z,101960.00
2018-09-29T23:17:11.594Z,101960.00
2018-09-29T23:19:41.412Z,101957.00
2018-09-29T23:22:11.262Z,101959.00
2018-09-29T23:24:41.178Z,101955.00
2018-09-29T23:27:10.978Z,101958.00
2018-09-29T23:29:41.029Z,101959.00
2018-09-29T23:32:10.854Z,101939.00
2018-09-29T23:34:40.717Z,101946.00
2018-09-29T23:37:10.574Z,101936.00
2018-09-29T23:39:40.433Z,101947.00
2018-09-29T23:42:10.315Z,101941.00
2018-09-29T23:44:40.203Z,101939.00
2018-09-29T23:47:10.341Z,101934.00
2018-09-29T23:49:40.236Z,101929.00
2018-09-29T23:52:10.081Z,101938.00
2018-09-29T23:54:39.941Z,101930.00
2018-09-29T23:57:10.383Z,101927.00
2018-09-29T23:59:40.193Z,101936.00
